Logan, UT (84321)

12:09 AM MDT on July 29, 2016 (GMT -0600)
Adams Elem School | | Change Station
Active Advisory: Fire Weather Watch Active Notice: Record Report

Elev 4596 ft 41.74 °N, 111.82 °W | Updated 16 seconds ago

Clear
Clear
77.2 °F
Feels Like 77 °F
N
14.8
Wind Variable Wind from NE
Gusts 17.0 mph

Today
High -- | Low -- °F
--% Chance of Precip.
Yesterday
High -- | Low -- °F
Precip. -- in
Pressure 29.91 in
Visibility 10.0 miles
Clouds Clear
Heat Index 77 °F
Dew Point 33 °F
Humidity 20%
Rainfall 0.00 in
Snow Depth Not available.
6:19 AM 8:47 PM
Waning Crescent, 25% visible
METAR KLGU 290551Z AUTO 31004KT 10SM CLR 18/09 A3007 RMK AO2 SLP127 T01780094 10356 20178 51009
Pressure 29.91 in
Visibility 10.0 miles
Clouds Clear
Heat Index 77 °F
Dew Point 33 °F
Humidity 20%
Rainfall 0.00 in
Snow Depth Not available.
6:19 AM 8:47 PM
Waning Crescent, 25% visible
METAR KLGU 290551Z AUTO 31004KT 10SM CLR 18/09 A3007 RMK AO2 SLP127 T01780094 10356 20178 51009

10-Day Weather Forecast

Almanac

Astronomy

Jul. 29, 2016 Rise Set
Actual Time
Civil Twilight
Nautical Twilight
Astronomical Twilight
Moon
Length of Visible Light
Length of Day
Tomorrow will be .
, % of the Moon is Illuminated

Today's Extremes

State Highs State Lows

Community

WunderPhotos

Upload Photos

1,928,299 photos uploaded!

WunderBlog® & News

Nearby

Air Quality

  Air Quality AQ Index Pollutant
Not available.

Snow Depth

Station Depth Elevation

Earthquake Activity

City Distance Mag. Time & Date
Minimum magnitude displayed is 2.5.

Coastal Water Temperatures

Place Temperature

Stations

Nearby Weather Stations

Station Location Temp. Windchill Dew Point Humidity Wind Precip. Elev Updated Type
                   

Watches & Warnings

Fire Weather Watch
Issued: 3:51 PM MDT Jul. 28, 2016 – National Weather Service

... Fire Weather Watch remains in effect from Saturday morning
through Saturday evening for dry thunderstorms and gusty outflow
winds for fire weather zones 478... 479... 480... 481... 482...
483 and 484...

* affected area... fire weather zone 478 Salt Lake desert... fire
weather zone 479 Wasatch mountains... fire weather zone 480
Uinta Mountains... fire weather zone 481 western Ashley
National Forest... fire weather zone 482 western Uintah basin...
fire weather zone 483 southern Ashley National Forest and fire
weather zone 484 Tavaputs plateau.

* Thunderstorms... isolated to scattered mainly dry thunderstorms
mostly during the afternoon and evening hours Saturday.

* Outflow winds... gusty and erratic winds in excess of 50 mph
will be possible with the storms.

* Impacts... the threat of lightning and gusty winds in addition
to very dry conditions will bring the potential of multiple
new fires and explosive fire growth.

Precautionary/preparedness actions...

A Fire Weather Watch means that there is a potential for critical
fire weather conditions. Continue to monitor for the latest
forecasts and for possible red flag warnings.



Rogowski